createdAt,value
2022-08-12T00:02:03.342Z,100140.94
2022-08-12T00:04:48.372Z,100143.56
2022-08-12T00:07:34.012Z,100138.84
2022-08-12T00:10:19.149Z,100139.34
2022-08-12T00:13:04.507Z,100135.47
2022-08-12T00:15:49.841Z,100137.50
2022-08-12T00:18:38.740Z,100137.19
2022-08-12T00:21:23.921Z,100132.88
2022-08-12T00:24:12.112Z,100137.50
2022-08-12T00:26:59.273Z,100136.28
2022-08-12T00:29:47.796Z,100136.38
2022-08-12T00:32:36.000Z,100142.25
2022-08-12T00:35:24.409Z,100137.72
2022-08-12T00:38:19.474Z,100137.63
2022-08-12T00:41:04.904Z,100131.28
2022-08-12T00:43:31.796Z,100129.03
2022-08-12T00:46:17.548Z,100123.84
2022-08-12T00:48:44.446Z,100137.09
2022-08-12T00:51:11.507Z,100136.50
2022-08-12T00:53:39.003Z,100140.19
2022-08-12T00:56:06.940Z,100135.25
2022-08-12T00:58:34.716Z,100139.84
2022-08-12T01:01:02.688Z,100136.09
2022-08-12T01:03:54.307Z,100139.03
2022-08-12T01:06:43.437Z,100137.75
2022-08-12T01:09:29.067Z,100138.13
2022-08-12T01:11:56.188Z,100138.25
2022-08-12T01:14:28.872Z,100141.16
2022-08-12T01:16:58.173Z,100143.63
2022-08-12T01:19:26.199Z,100150.00
2022-08-12T01:22:25.155Z,100145.56
2022-08-12T01:24:52.261Z,100141.94
2022-08-12T01:27:20.248Z,100155.41
2022-08-12T01:29:48.791Z,100142.88
2022-08-12T01:32:15.931Z,100152.09
2022-08-12T01:34:48.642Z,100149.28
2022-08-12T01:37:15.458Z,100149.28
2022-08-12T01:40:34.490Z,100156.34
2022-08-12T01:42:34.300Z,100150.78
2022-08-12T01:45:01.119Z,100157.19
2022-08-12T01:47:31.167Z,100151.19
2022-08-12T01:50:01.003Z,100160.88
2022-08-12T01:52:33.328Z,100157.19
2022-08-12T01:55:01.199Z,100152.25
2022-08-12T01:57:59.359Z,100156.50
2022-08-12T02:00:35.927Z,100152.38
2022-08-12T02:03:26.473Z,100153.78
2022-08-12T02:06:22.155Z,100156.75
2022-08-12T02:09:11.300Z,100158.66
2022-08-12T02:11:47.735Z,100157.91
2022-08-12T02:14:20.876Z,100158.50
2022-08-12T02:16:58.973Z,100157.78
2022-08-12T02:19:46.854Z,100164.03
2022-08-12T02:22:26.667Z,100169.94
2022-08-12T02:24:54.361Z,100173.97
2022-08-12T02:27:23.301Z,100168.66
2022-08-12T02:29:52.793Z,100174.69
2022-08-12T02:32:20.784Z,100173.13
2022-08-12T02:34:47.600Z,100171.34
2022-08-12T02:37:15.584Z,100170.91
2022-08-12T02:39:48.391Z,100172.66
2022-08-12T02:42:16.345Z,100169.25
2022-08-12T02:44:45.994Z,100178.53
2022-08-12T02:47:55.940Z,100169.31
2022-08-12T02:50:02.520Z,100169.06
2022-08-12T02:52:32.551Z,100172.13
2022-08-12T02:55:04.553Z,100172.81
2022-08-12T02:57:31.653Z,100177.63
2022-08-12T02:59:58.851Z,100173.38
2022-08-12T03:02:25.680Z,100177.25
2022-08-12T03:04:58.983Z,100176.53
2022-08-12T03:07:59.224Z,100174.75
2022-08-12T03:10:36.948Z,100172.81
2022-08-12T03:13:14.813Z,100172.69
2022-08-12T03:15:41.996Z,100175.13
2022-08-12T03:18:25.862Z,100172.44
2022-08-12T03:20:56.588Z,100168.50
2022-08-12T03:23:29.747Z,100166.44
2022-08-12T03:26:02.650Z,100168.53
2022-08-12T03:28:54.830Z,100159.97
2022-08-12T03:31:22.898Z,100164.50
2022-08-12T03:34:00.658Z,100167.97
2022-08-12T03:36:30.659Z,100163.44
2022-08-12T03:39:16.235Z,100154.03
2022-08-12T03:42:07.753Z,100158.63
2022-08-12T03:44:57.210Z,100165.72
2022-08-12T03:47:46.580Z,100172.22
2022-08-12T03:50:31.673Z,100168.78
2022-08-12T03:53:17.286Z,100174.69
2022-08-12T03:56:02.658Z,100169.66
2022-08-12T03:58:48.469Z,100167.34
2022-08-12T04:01:20.248Z,100171.00
2022-08-12T04:03:53.305Z,100170.59
2022-08-12T04:06:34.862Z,100174.28
2022-08-12T04:09:15.787Z,100170.81
2022-08-12T04:12:02.935Z,100181.06
2022-08-12T04:14:29.974Z,100172.41
2022-08-12T04:16:59.980Z,100177.91
2022-08-12T04:19:29.454Z,100183.72
2022-08-12T04:22:02.404Z,100178.63
2022-08-12T04:24:35.493Z,100180.38
2022-08-12T04:27:04.060Z,100178.28
2022-08-12T04:30:16.850Z,100176.72
2022-08-12T04:32:18.639Z,100174.66
2022-08-12T04:34:47.855Z,100177.44
2022-08-12T04:37:16.147Z,100181.03
2022-08-12T04:39:43.080Z,100190.13
2022-08-12T04:42:10.039Z,100183.03
2022-08-12T04:44:45.625Z,100180.34
2022-08-12T04:47:13.367Z,100179.84
2022-08-12T04:49:41.056Z,100181.50
2022-08-12T04:52:07.984Z,100181.78
2022-08-12T04:54:34.873Z,100173.63
2022-08-12T04:57:05.251Z,100179.97
2022-08-12T04:59:47.921Z,100175.34
2022-08-12T05:02:20.924Z,100182.47
2022-08-12T05:04:52.165Z,100175.09
2022-08-12T05:07:22.062Z,100166.91
2022-08-12T05:09:58.992Z,100173.44
2022-08-12T05:12:39.137Z,100173.47
2022-08-12T05:15:18.933Z,100182.50
2022-08-12T05:17:53.797Z,100176.44
2022-08-12T05:20:26.006Z,100176.41
2022-08-12T05:23:12.236Z,100172.56
2022-08-12T05:25:40.334Z,100178.50
2022-08-12T05:30:51.151Z,100181.41
2022-08-12T05:33:18.232Z,100180.56
2022-08-12T05:35:45.811Z,100171.78
2022-08-12T05:38:32.695Z,100175.06
2022-08-12T05:41:00.451Z,100175.88
2022-08-12T05:43:28.074Z,100170.34
2022-08-12T05:45:55.226Z,100171.41
2022-08-12T05:48:25.780Z,100167.75
2022-08-12T05:50:56.908Z,100168.81
2022-08-12T05:53:29.740Z,100174.03
2022-08-12T05:55:59.398Z,100170.22
2022-08-12T05:58:26.419Z,100169.63
2022-08-12T06:00:56.921Z,100172.53
2022-08-12T06:03:25.639Z,100179.59
2022-08-12T06:05:55.223Z,100175.16
2022-08-12T06:08:23.314Z,100169.81
2022-08-12T06:10:53.884Z,100168.09
2022-08-12T06:13:28.057Z,100169.19
2022-08-12T06:16:11.238Z,100166.72
2022-08-12T06:18:41.198Z,100172.25
2022-08-12T06:21:23.241Z,100171.38
2022-08-12T06:23:50.577Z,100166.38
2022-08-12T06:29:06.088Z,100177.66
2022-08-12T06:31:34.768Z,100178.50
2022-08-12T06:35:26.534Z,100167.41
2022-08-12T06:36:50.179Z,100173.81
2022-08-12T06:39:17.827Z,100183.94
2022-08-12T06:42:32.138Z,100178.41
2022-08-12T06:44:50.692Z,100172.19
2022-08-12T06:47:19.902Z,100180.91
2022-08-12T06:49:46.962Z,100174.84
2022-08-12T06:52:14.074Z,100180.78
2022-08-12T06:54:53.282Z,100172.13
2022-08-12T06:57:57.404Z,100162.84
2022-08-12T07:00:11.615Z,100162.50
2022-08-12T07:02:41.535Z,100169.34
2022-08-12T07:05:09.017Z,100159.81
2022-08-12T07:07:39.270Z,100155.44
2022-08-12T07:10:08.400Z,100161.59
2022-08-12T07:12:36.193Z,100152.38
2022-08-12T07:15:03.275Z,100163.00
2022-08-12T07:17:36.480Z,100165.00
2022-08-12T07:20:29.845Z,100156.78
2022-08-12T07:22:57.578Z,100160.22
2022-08-12T07:25:31.201Z,100162.41
2022-08-12T07:28:19.084Z,100163.00
2022-08-12T07:30:50.361Z,100159.53
2022-08-12T07:33:18.310Z,100161.56
2022-08-12T07:35:48.623Z,100157.94
2022-08-12T07:38:34.526Z,100155.47
2022-08-12T07:41:05.866Z,100158.66
2022-08-12T07:43:34.057Z,100161.69
2022-08-12T07:46:08.056Z,100161.31
2022-08-12T07:48:36.821Z,100155.66
2022-08-12T07:51:03.726Z,100156.88
2022-08-12T07:56:20.273Z,100154.69
2022-08-12T07:58:51.062Z,100164.41
2022-08-12T08:01:21.535Z,100153.34
2022-08-12T08:04:12.958Z,100161.47
2022-08-12T08:06:45.444Z,100148.69
2022-08-12T08:09:13.044Z,100151.13
2022-08-12T08:11:58.466Z,100157.00
2022-08-12T08:14:32.711Z,100161.03
2022-08-12T08:17:01.213Z,100158.72
2022-08-12T08:19:29.422Z,100156.44
2022-08-12T08:21:56.836Z,100161.59
2022-08-12T08:24:28.607Z,100155.06
2022-08-12T08:27:00.437Z,100143.03
2022-08-12T08:29:33.069Z,100145.94
2022-08-12T08:32:01.676Z,100140.94
2022-08-12T08:34:52.856Z,100139.59
2022-08-12T08:37:20.483Z,100139.00
2022-08-12T08:39:48.497Z,100138.50
2022-08-12T08:42:34.078Z,100133.44
2022-08-12T08:45:13.035Z,100141.72
2022-08-12T08:47:44.125Z,100132.72
2022-08-12T08:50:16.403Z,100136.91
2022-08-12T08:52:44.151Z,100130.75
2022-08-12T08:55:14.132Z,100131.84
2022-08-12T08:57:43.641Z,100133.63
2022-08-12T09:00:21.975Z,100135.25
2022-08-12T09:02:59.404Z,100133.16
2022-08-12T09:05:27.458Z,100132.81
2022-08-12T09:10:47.305Z,100116.13
2022-08-12T09:14:12.582Z,100119.81
2022-08-12T09:16:42.762Z,100117.72
2022-08-12T09:19:27.292Z,100118.22
2022-08-12T09:21:56.723Z,100116.34
2022-08-12T09:24:27.845Z,100122.16
2022-08-12T09:26:55.420Z,100116.34
2022-08-12T09:30:09.953Z,100117.34
2022-08-12T09:32:57.061Z,100110.78
2022-08-12T09:35:03.520Z,100107.47
2022-08-12T09:37:58.317Z,100102.75
2022-08-12T09:40:57.743Z,100107.47
2022-08-12T09:43:46.916Z,100089.28
2022-08-12T09:46:25.497Z,100103.38
2022-08-12T09:48:56.541Z,100098.47
2022-08-12T09:51:38.277Z,100096.25
2022-08-12T09:54:32.907Z,100087.78
2022-08-12T09:58:47.001Z,100093.84
2022-08-12T10:00:13.675Z,100083.31
2022-08-12T10:03:00.627Z,100082.94
2022-08-12T10:06:20.387Z,100071.34
2022-08-12T10:08:16.652Z,100072.56
2022-08-12T10:11:06.156Z,100077.31
2022-08-12T10:13:42.897Z,100073.16
2022-08-12T10:16:22.046Z,100069.91
2022-08-12T10:18:53.544Z,100062.66
2022-08-12T10:21:36.217Z,100060.00
2022-08-12T10:24:09.526Z,100060.78
2022-08-12T10:26:55.941Z,100067.53
2022-08-12T10:30:37.385Z,100070.94
2022-08-12T10:32:44.631Z,100068.25
2022-08-12T10:35:18.358Z,100062.06
2022-08-12T10:38:34.770Z,100072.88
2022-08-12T10:40:34.438Z,100065.09
2022-08-12T10:43:23.717Z,100053.19
2022-08-12T10:45:58.257Z,100057.91
2022-08-12T10:48:33.414Z,100047.59
2022-08-12T10:52:02.961Z,100054.19
2022-08-12T10:53:52.662Z,100040.41
2022-08-12T10:56:19.843Z,100045.31
2022-08-12T10:58:50.871Z,100034.72
2022-08-12T11:01:48.832Z,100024.97
2022-08-12T11:04:34.314Z,100015.13
2022-08-12T11:07:06.106Z,100011.13
2022-08-12T11:12:56.634Z,100020.47
2022-08-12T11:15:33.342Z,100002.19
2022-08-12T11:18:11.887Z,100006.66
2022-08-12T11:20:45.341Z,100006.44
2022-08-12T11:23:25.847Z,99997.47
2022-08-12T11:26:04.991Z,100000.22
2022-08-12T11:28:36.960Z,99995.63
2022-08-12T11:31:05.920Z,100001.03
2022-08-12T11:34:04.821Z,100000.53
2022-08-12T11:36:22.252Z,99986.16
2022-08-12T11:38:50.945Z,99988.41
2022-08-12T11:41:27.969Z,99979.50
2022-08-12T11:44:35.529Z,99989.50
2022-08-12T11:46:52.885Z,99985.25
2022-08-12T11:49:31.668Z,99973.66
2022-08-12T11:52:02.806Z,99970.19
2022-08-12T11:54:31.410Z,99974.22
2022-08-12T11:57:00.322Z,99964.06
2022-08-12T12:02:20.066Z,99961.34
2022-08-12T12:04:52.974Z,99973.16
2022-08-12T12:07:33.737Z,99955.63
2022-08-12T12:10:10.288Z,99955.75
2022-08-12T12:12:37.914Z,99958.97
2022-08-12T12:15:12.418Z,99950.59
2022-08-12T12:17:43.797Z,99952.50
2022-08-12T12:20:13.689Z,99950.53
2022-08-12T12:22:41.034Z,99953.34
2022-08-12T12:25:13.172Z,99946.94
2022-08-12T12:28:06.104Z,99938.47
2022-08-12T12:30:34.648Z,99947.63
2022-08-12T12:33:01.732Z,99938.78
2022-08-12T12:36:06.099Z,99939.75
2022-08-12T12:38:17.454Z,99936.47
2022-08-12T12:40:45.753Z,99939.00
2022-08-12T12:43:17.818Z,99930.44
2022-08-12T12:46:05.968Z,99915.22
2022-08-12T12:48:37.729Z,99923.16
2022-08-12T12:51:51.754Z,99925.19
2022-08-12T12:54:10.627Z,99927.31
2022-08-12T12:56:42.671Z,99930.88
2022-08-12T12:59:54.891Z,99928.41
2022-08-12T13:02:08.053Z,99918.75
2022-08-12T13:04:37.506Z,99913.84
2022-08-12T13:07:05.931Z,99924.00
2022-08-12T13:09:36.226Z,99914.72
2022-08-12T13:12:04.985Z,99920.41
2022-08-12T13:14:35.172Z,99910.72
2022-08-12T13:17:06.099Z,99920.22
2022-08-12T13:19:45.151Z,99913.69
2022-08-12T13:22:21.456Z,99900.91
2022-08-12T13:24:51.966Z,99903.13
2022-08-12T13:27:28.401Z,99901.56
2022-08-12T13:30:06.423Z,99905.25
2022-08-12T13:32:36.692Z,99899.47
2022-08-12T13:35:19.262Z,99898.38
2022-08-12T13:37:57.038Z,99898.69
2022-08-12T13:40:26.205Z,99891.28
2022-08-12T13:42:57.999Z,99894.81
2022-08-12T13:45:29.122Z,99886.91
2022-08-12T13:47:56.443Z,99896.13
2022-08-12T13:50:26.749Z,99888.25
2022-08-12T13:52:53.661Z,99879.50
2022-08-12T13:55:31.104Z,99882.31
2022-08-12T13:58:01.698Z,99880.63
2022-08-12T14:00:33.899Z,99877.50
2022-08-12T14:03:05.896Z,99878.78
2022-08-12T14:05:39.100Z,99875.72
2022-08-12T14:08:06.953Z,99876.00
2022-08-12T14:10:36.991Z,99870.06
2022-08-12T14:13:10.403Z,99865.47
2022-08-12T14:15:45.256Z,99864.22
2022-08-12T14:18:16.411Z,99865.19
2022-08-12T14:20:49.556Z,99866.38
2022-08-12T14:24:04.389Z,99860.16
2022-08-12T14:26:12.070Z,99857.84
2022-08-12T14:28:39.743Z,99857.84
2022-08-12T14:31:18.689Z,99860.59
2022-08-12T14:33:48.996Z,99854.25
2022-08-12T14:36:16.569Z,99863.75
2022-08-12T14:38:44.480Z,99858.53
2022-08-12T14:41:14.015Z,99858.75
2022-08-12T14:43:44.265Z,99864.47
2022-08-12T14:46:33.047Z,99861.47
2022-08-12T14:49:27.348Z,99866.06
2022-08-12T14:52:43.340Z,99863.06
2022-08-12T14:57:33.654Z,99860.09
2022-08-12T15:00:39.298Z,99866.88
2022-08-12T15:03:06.448Z,99866.31
2022-08-12T15:06:03.444Z,99873.88
2022-08-12T15:08:26.401Z,99867.09
2022-08-12T15:10:54.854Z,99867.91
2022-08-12T15:13:23.377Z,99871.16
2022-08-12T15:15:53.002Z,99869.13
2022-08-12T15:18:22.892Z,99865.56
2022-08-12T15:20:50.656Z,99871.03
2022-08-12T15:23:21.733Z,99856.41
2022-08-12T15:26:02.695Z,99863.47
2022-08-12T15:28:32.249Z,99868.22
2022-08-12T15:30:59.238Z,99869.41
2022-08-12T15:33:45.435Z,99872.75
2022-08-12T15:36:13.997Z,99872.16
2022-08-12T15:38:42.031Z,99863.63
2022-08-12T15:41:11.033Z,99867.28
2022-08-12T15:44:17.183Z,99863.31
2022-08-12T15:46:32.657Z,99866.06
2022-08-12T15:49:02.261Z,99855.34
2022-08-12T15:51:58.112Z,99861.06
2022-08-12T15:54:35.299Z,99865.59
2022-08-12T15:57:08.054Z,99863.06
2022-08-12T16:00:00.148Z,99860.38
2022-08-12T16:02:29.454Z,99857.38
2022-08-12T16:04:58.945Z,99859.78
2022-08-12T16:07:31.255Z,99860.06
2022-08-12T16:10:06.019Z,99860.53
2022-08-12T16:12:56.658Z,99868.63
2022-08-12T16:15:24.922Z,99866.06
2022-08-12T16:18:20.102Z,99870.66
2022-08-12T16:20:48.860Z,99865.28
2022-08-12T16:23:36.610Z,99870.09
2022-08-12T16:26:14.747Z,99871.78
2022-08-12T16:28:43.545Z,99868.28
2022-08-12T16:31:22.759Z,99875.94
2022-08-12T16:33:59.562Z,99870.44
2022-08-12T16:36:31.304Z,99873.16
2022-08-12T16:39:01.685Z,99879.25
2022-08-12T16:41:37.813Z,99867.06
2022-08-12T16:44:09.661Z,99872.78
2022-08-12T16:46:39.852Z,99871.84
2022-08-12T16:49:13.212Z,99875.44
2022-08-12T16:54:37.276Z,99877.56
2022-08-12T16:57:09.762Z,99870.38
2022-08-12T16:59:54.214Z,99869.06
2022-08-12T17:02:31.291Z,99869.06
2022-08-12T17:05:00.000Z,99878.78
2022-08-12T17:07:36.660Z,99879.44
2022-08-12T17:10:08.324Z,99882.00
2022-08-12T17:12:37.694Z,99885.63
2022-08-12T17:15:51.274Z,99875.81
2022-08-12T17:18:38.987Z,99872.84
2022-08-12T17:20:49.523Z,99877.69
2022-08-12T17:23:17.416Z,99880.41
2022-08-12T17:25:49.072Z,99874.03
2022-08-12T17:28:17.505Z,99883.56
2022-08-12T17:30:44.465Z,99882.28
2022-08-12T17:33:17.218Z,99872.28
2022-08-12T17:35:52.233Z,99882.75
2022-08-12T17:38:21.180Z,99881.03
2022-08-12T17:40:48.242Z,99882.91
2022-08-12T17:43:57.526Z,99885.75
2022-08-12T17:48:57.821Z,99873.28
2022-08-12T17:51:25.350Z,99881.13
2022-08-12T17:56:37.035Z,99879.84
2022-08-12T17:59:07.551Z,99884.94
2022-08-12T18:01:35.997Z,99881.31
2022-08-12T18:04:22.218Z,99885.59
2022-08-12T18:06:55.852Z,99878.25
2022-08-12T18:09:24.645Z,99882.09
2022-08-12T18:12:17.521Z,99877.63
2022-08-12T18:14:53.958Z,99881.38
2022-08-12T18:20:07.671Z,99887.69
2022-08-12T18:22:40.850Z,99893.81
2022-08-12T18:26:13.861Z,99880.59
2022-08-12T18:28:15.706Z,99889.72
2022-08-12T18:30:53.055Z,99891.72
2022-08-12T18:33:25.636Z,99900.28
2022-08-12T18:35:55.620Z,99908.91
2022-08-12T18:38:25.015Z,99903.97
2022-08-12T18:41:21.885Z,99900.75
2022-08-12T18:44:02.441Z,99888.44
2022-08-12T18:46:46.925Z,99893.94
2022-08-12T18:49:21.702Z,99893.63
2022-08-12T18:51:54.847Z,99896.16
2022-08-12T18:54:29.518Z,99891.00
2022-08-12T18:56:59.394Z,99893.13
2022-08-12T19:00:01.648Z,99902.94
2022-08-12T19:02:21.104Z,99893.41
2022-08-12T19:04:49.326Z,99895.41
2022-08-12T19:07:21.959Z,99895.94
2022-08-12T19:09:57.854Z,99902.44
2022-08-12T19:12:55.369Z,99902.59
2022-08-12T19:15:27.410Z,99900.03
2022-08-12T19:18:02.604Z,99904.22
2022-08-12T19:20:30.735Z,99908.44
2022-08-12T19:23:22.278Z,99904.13
2022-08-12T19:26:00.571Z,99904.50
2022-08-12T19:28:29.865Z,99903.22
2022-08-12T19:31:22.763Z,99900.78
2022-08-12T19:34:37.670Z,99905.25
2022-08-12T19:37:01.965Z,99910.53
2022-08-12T19:39:29.727Z,99911.38
2022-08-12T19:42:06.993Z,99904.28
2022-08-12T19:44:38.160Z,99907.63
2022-08-12T19:47:08.220Z,99909.31
2022-08-12T19:49:37.141Z,99909.63
2022-08-12T19:52:04.189Z,99910.94
2022-08-12T19:54:31.006Z,99908.75
2022-08-12T19:56:58.685Z,99909.63
2022-08-12T19:59:43.610Z,99917.91
2022-08-12T20:02:32.993Z,99907.22
2022-08-12T20:06:05.682Z,99907.84
2022-08-12T20:07:59.005Z,99911.13
2022-08-12T20:10:35.575Z,99913.34
2022-08-12T20:13:17.409Z,99904.06
2022-08-12T20:15:46.047Z,99909.28
2022-08-12T20:18:19.132Z,99904.38
2022-08-12T20:21:14.741Z,99907.97
2022-08-12T20:23:59.921Z,99908.56
2022-08-12T20:26:48.334Z,99905.63
2022-08-12T20:29:16.729Z,99893.56
2022-08-12T20:31:46.329Z,99900.72
2022-08-12T20:34:18.899Z,99899.66
2022-08-12T20:36:47.606Z,99901.59
2022-08-12T20:39:52.328Z,99902.13
2022-08-12T20:42:16.377Z,99908.13
2022-08-12T20:44:44.737Z,99908.69
2022-08-12T20:47:20.263Z,99905.97
2022-08-12T20:50:13.032Z,99906.50
2022-08-12T20:52:47.480Z,99905.41
2022-08-12T20:55:15.893Z,99903.22
2022-08-12T20:58:01.863Z,99905.97
2022-08-12T21:01:06.381Z,99913.38
2022-08-12T21:07:11.398Z,99909.81
2022-08-12T21:09:40.726Z,99920.47
2022-08-12T21:12:28.783Z,99913.66
2022-08-12T21:15:22.858Z,99916.94
2022-08-12T21:18:27.330Z,99915.81
2022-08-12T21:20:56.913Z,99918.31
2022-08-12T21:23:25.387Z,99919.94
2022-08-12T21:25:56.448Z,99920.47
2022-08-12T21:28:30.771Z,99927.84
2022-08-12T21:32:34.738Z,99928.09
2022-08-12T21:34:07.712Z,99917.72
2022-08-12T21:36:37.481Z,99925.63
2022-08-12T21:39:35.267Z,99922.66
2022-08-12T21:42:06.887Z,99925.63
2022-08-12T21:45:45.539Z,99933.56
2022-08-12T21:47:22.718Z,99934.09
2022-08-12T21:50:02.905Z,99933.28
2022-08-12T21:52:40.718Z,99933.00
2022-08-12T21:55:18.638Z,99933.31
2022-08-12T21:57:54.008Z,99936.03
2022-08-12T22:00:32.514Z,99930.84
2022-08-12T22:04:02.230Z,99930.00
2022-08-12T22:06:26.551Z,99936.84
2022-08-12T22:09:02.771Z,99936.03
2022-08-12T22:11:42.175Z,99934.94
2022-08-12T22:14:23.800Z,99945.03
2022-08-12T22:16:55.038Z,99939.81
2022-08-12T22:19:23.423Z,99939.75
2022-08-12T22:21:53.838Z,99943.00
2022-08-12T22:24:26.623Z,99942.47
2022-08-12T22:27:28.186Z,99951.75
2022-08-12T22:30:15.970Z,99951.75
2022-08-12T22:32:50.955Z,99949.00
2022-08-12T22:35:55.748Z,99958.28
2022-08-12T22:38:25.134Z,99956.06
2022-08-12T22:41:02.131Z,99950.88
2022-08-12T22:44:00.493Z,99957.97
2022-08-12T22:46:35.660Z,99959.28
2022-08-12T22:49:06.687Z,99956.00
2022-08-12T22:52:00.333Z,99962.22
2022-08-12T22:54:36.920Z,99964.09
2022-08-12T22:57:11.996Z,99958.59
2022-08-12T22:59:51.043Z,99963.72
2022-08-12T23:02:28.880Z,99963.47
2022-08-12T23:05:00.093Z,99967.78
2022-08-12T23:07:36.338Z,99962.84
2022-08-12T23:10:17.763Z,99965.81
2022-08-12T23:13:05.164Z,99956.25
2022-08-12T23:15:33.553Z,99961.97
2022-08-12T23:18:00.419Z,99962.53
2022-08-12T23:20:27.687Z,99958.19
2022-08-12T23:23:03.117Z,99963.59
2022-08-12T23:31:30.380Z,99959.38
2022-08-12T23:34:13.945Z,99961.31
2022-08-12T23:36:46.072Z,99959.91
2022-08-12T23:40:13.401Z,99958.78
2022-08-12T23:42:16.708Z,99960.38
2022-08-12T23:44:46.131Z,99966.34
2022-08-12T23:47:14.331Z,99967.41
2022-08-12T23:49:58.379Z,99964.13
2022-08-12T23:52:34.253Z,99964.69
2022-08-12T23:55:23.857Z,99958.41
2022-08-12T23:58:17.645Z,99963.00
